Time;durP1;ratioP1;P1;durP2;ratioP2;P2;SDS_P1;SDS_P2;PMS_P1;PMS_P2;Temp;Humidity;BMP_temperature;BMP_pressure;BME280_temperature;BME280_humidity;BME280_pressure;Samples;Min_cycle;Max_cycle;Signal;HPM_P1;HPM_P2
2022/06/24 00:01:27;;;;;;;10.80;5.97;;;18.50;99.90;;;;;;5065712;28;20063;-78
2022/06/24 00:03:55;;;;;;;7.70;4.80;;;18.40;99.90;;;;;;5056911;28;20045;-78
2022/06/24 00:06:22;;;;;;;8.25;4.70;;;18.40;99.90;;;;;;5052611;28;20056;-78
2022/06/24 00:08:52;;;;;;;7.05;4.22;;;18.40;99.90;;;;;;5058506;28;20125;-79
2022/06/24 00:11:25;;;;;;;5.32;3.83;;;18.40;99.90;;;;;;5061805;28;20059;-79
2022/06/24 00:14:03;;;;;;;9.90;4.70;;;18.40;99.90;;;;;;5058299;28;20098;-79
2022/06/24 00:16:30;;;;;;;5.43;3.85;;;18.40;99.90;;;;;;5052553;28;20045;-78
2022/06/24 00:19:11;;;;;;;7.80;4.30;;;18.40;99.90;;;;;;5052991;28;20045;-78
2022/06/24 00:21:38;;;;;;;7.32;4.57;;;18.40;99.90;;;;;;5035927;28;20044;-78
2022/06/24 00:24:06;;;;;;;6.03;4.20;;;18.40;99.90;;;;;;5051617;28;20127;-77
2022/06/24 00:26:42;;;;;;;6.35;4.18;;;18.50;99.90;;;;;;5050090;28;20044;-77
2022/06/24 00:29:15;;;;;;;6.63;4.03;;;18.40;99.90;;;;;;5035014;28;20053;-78
2022/06/24 00:31:43;;;;;;;6.95;4.13;;;18.50;99.90;;;;;;5043777;28;20103;-77
2022/06/24 00:34:24;;;;;;;7.43;4.03;;;18.40;99.90;;;;;;5065112;28;20045;-78
2022/06/24 00:36:51;;;;;;;8.00;4.38;;;18.40;99.90;;;;;;5057342;28;20080;-77
2022/06/24 00:39:18;;;;;;;7.57;4.35;;;18.40;99.90;;;;;;5035904;28;20501;-77
2022/06/24 00:41:59;;;;;;;5.80;3.83;;;18.40;99.90;;;;;;5055882;28;20137;-76
2022/06/24 00:44:33;;;;;;;5.47;4.05;;;18.40;99.90;;;;;;5065029;28;20056;-76
2022/06/24 00:47:01;;;;;;;6.00;3.95;;;18.40;99.90;;;;;;5072353;28;20078;-79
2022/06/24 00:49:29;;;;;;;5.53;4.30;;;18.30;99.90;;;;;;5072249;28;20416;-78
2022/06/24 00:51:56;;;;;;;6.20;4.53;;;18.30;99.90;;;;;;5063797;28;20052;-79
2022/06/24 00:54:25;;;;;;;6.65;4.72;;;18.30;99.90;;;;;;5065186;28;20580;-79
2022/06/24 00:56:56;;;;;;;6.25;4.20;;;18.30;99.90;;;;;;5072267;28;20041;-79
2022/06/24 00:59:25;;;;;;;10.82;4.80;;;18.30;99.90;;;;;;5057150;28;20071;-79
2022/06/24 01:01:53;;;;;;;4.60;3.85;;;18.20;99.90;;;;;;5050933;28;20049;-78
2022/06/24 01:04:20;;;;;;;6.95;3.97;;;18.20;99.90;;;;;;5050338;28;20050;-78
2022/06/24 01:06:47;;;;;;;8.35;4.47;;;18.20;99.90;;;;;;5053137;28;20079;-78
2022/06/24 01:09:19;;;;;;;9.82;4.10;;;18.20;99.90;;;;;;5051058;28;20125;-78
2022/06/24 01:11:46;;;;;;;4.43;4.03;;;18.20;99.90;;;;;;5064926;28;20578;-79
2022/06/24 01:14:15;;;;;;;5.68;4.30;;;18.20;99.90;;;;;;5050031;28;20421;-78
2022/06/24 01:16:43;;;;;;;5.20;4.05;;;18.20;99.90;;;;;;5053117;28;20056;-79
2022/06/24 01:19:12;;;;;;;7.00;4.55;;;18.20;99.90;;;;;;5050176;28;20076;-78
2022/06/24 01:21:41;;;;;;;6.72;4.65;;;18.20;99.90;;;;;;5059644;28;20094;-79
2022/06/24 01:24:10;;;;;;;5.50;4.20;;;18.20;99.90;;;;;;5059497;28;20053;-78
2022/06/24 01:26:39;;;;;;;5.90;4.60;;;18.20;99.90;;;;;;5051821;28;20045;-78
2022/06/24 01:29:07;;;;;;;7.57;5.35;;;18.20;99.90;;;;;;5059673;28;20059;-77
2022/06/24 01:31:35;;;;;;;7.78;4.75;;;18.10;99.90;;;;;;5051979;28;20544;-77
2022/06/24 01:34:03;;;;;;;6.75;4.75;;;18.10;99.90;;;;;;5059512;28;20052;-77
2022/06/24 01:36:30;;;;;;;7.72;4.65;;;18.10;99.90;;;;;;5039417;28;20077;-77
2022/06/24 01:38:58;;;;;;;6.57;4.15;;;18.10;99.90;;;;;;5065156;28;20554;-78
2022/06/24 01:41:26;;;;;;;8.55;4.50;;;18.10;99.90;;;;;;5070693;28;20052;-78
2022/06/24 01:43:53;;;;;;;4.40;3.70;;;18.10;99.90;;;;;;5070790;28;20521;-77
2022/06/24 01:46:20;;;;;;;6.43;3.95;;;18.10;99.90;;;;;;5066812;28;20051;-78
2022/06/24 01:48:47;;;;;;;5.45;4.50;;;18.10;99.90;;;;;;5048890;28;20075;-78
2022/06/24 01:51:16;;;;;;;6.10;4.35;;;18.10;99.90;;;;;;5061966;28;20056;-78
2022/06/24 01:53:43;;;;;;;10.80;4.45;;;18.10;99.90;;;;;;5052548;28;20560;-77
2022/06/24 01:56:12;;;;;;;8.00;3.90;;;18.10;99.90;;;;;;5051093;28;20096;-78
2022/06/24 01:58:40;;;;;;;9.23;4.30;;;18.10;99.90;;;;;;5065768;28;20048;-77
2022/06/24 02:01:07;;;;;;;6.20;4.60;;;18.10;99.90;;;;;;5059494;28;20041;-78
2022/06/24 02:03:35;;;;;;;5.18;4.40;;;18.10;99.90;;;;;;5050593;28;20045;-78
2022/06/24 02:06:05;;;;;;;12.30;4.65;;;18.10;99.90;;;;;;5056920;28;20053;-76
2022/06/24 02:08:33;;;;;;;6.50;4.35;;;18.10;99.90;;;;;;5070000;28;20131;-77
2022/06/24 02:13:49;;;;;;;6.68;4.60;;;18.10;99.90;;;;;;5065533;28;20041;-79
2022/06/24 02:16:20;;;;;;;6.88;4.93;;;18.20;99.90;;;;;;5053177;28;20057;-78
2022/06/24 02:18:47;;;;;;;6.65;4.72;;;18.20;99.90;;;;;;5050296;28;20080;-78
2022/06/24 02:21:15;;;;;;;7.82;4.63;;;18.20;99.90;;;;;;5051861;28;20045;-78
2022/06/24 02:23:43;;;;;;;10.45;5.25;;;18.30;99.90;;;;;;5050507;28;20055;-79
2022/06/24 02:26:11;;;;;;;5.05;4.45;;;18.30;99.90;;;;;;5067793;28;20088;-78
2022/06/24 02:28:38;;;;;;;4.68;3.95;;;18.30;99.90;;;;;;5070036;28;20512;-77
2022/06/24 02:31:07;;;;;;;5.60;4.40;;;18.30;99.90;;;;;;5070850;28;20064;-76
2022/06/24 02:33:35;;;;;;;4.45;3.78;;;18.40;99.90;;;;;;5061358;28;20622;-77
2022/06/24 02:36:02;;;;;;;9.35;4.57;;;18.40;99.90;;;;;;5051937;28;20094;-77
2022/06/24 02:38:29;;;;;;;6.18;3.75;;;18.50;99.90;;;;;;5044353;28;20044;-77
2022/06/24 02:40:58;;;;;;;5.78;3.75;;;18.50;99.90;;;;;;5064670;28;20059;-76
2022/06/24 02:43:27;;;;;;;4.47;3.85;;;18.60;99.90;;;;;;5055507;28;20041;-77
2022/06/24 02:45:58;;;;;;;5.13;3.65;;;18.60;99.90;;;;;;5031979;28;20045;-77
2022/06/24 02:48:27;;;;;;;4.18;3.78;;;18.60;99.90;;;;;;5054084;28;20056;-77
2022/06/24 02:50:55;;;;;;;9.20;3.95;;;18.70;99.90;;;;;;5046959;28;20416;-77
2022/06/24 02:53:24;;;;;;;7.18;3.92;;;18.70;99.90;;;;;;5051137;28;20410;-78
2022/06/24 02:55:53;;;;;;;5.05;3.70;;;18.70;99.90;;;;;;5048241;28;20049;-77
2022/06/24 02:58:21;;;;;;;3.78;3.47;;;18.70;99.90;;;;;;5040609;28;20052;-77
2022/06/24 03:00:49;;;;;;;5.43;3.50;;;18.70;99.90;;;;;;5065581;28;20040;-77
2022/06/24 03:03:19;;;;;;;4.63;4.13;;;18.60;99.90;;;;;;5030498;28;20620;-77
2022/06/24 03:05:48;;;;;;;3.63;3.30;;;18.70;99.90;;;;;;5059411;28;20049;-78
2022/06/24 03:08:17;;;;;;;3.30;3.00;;;18.60;99.90;;;;;;5051011;28;20057;-77
2022/06/24 03:10:45;;;;;;;4.32;3.28;;;18.70;99.90;;;;;;5058250;28;20063;-77
2022/06/24 03:13:13;;;;;;;3.83;3.03;;;18.70;99.90;;;;;;5069112;28;20071;-77
2022/06/24 03:15:43;;;;;;;6.18;3.40;;;18.70;99.90;;;;;;5068470;28;20051;-77
2022/06/24 03:18:11;;;;;;;3.70;3.17;;;18.70;99.90;;;;;;5050590;28;20135;-77
2022/06/24 03:20:39;;;;;;;3.30;2.92;;;18.80;99.90;;;;;;5054488;28;20091;-78
2022/06/24 03:23:08;;;;;;;3.40;3.20;;;18.90;99.90;;;;;;5049379;28;20049;-77
2022/06/24 03:25:36;;;;;;;3.67;2.90;;;19.00;99.90;;;;;;5050528;28;20398;-77
2022/06/24 03:28:04;;;;;;;3.40;2.80;;;19.00;99.90;;;;;;5054652;28;20063;-76
2022/06/24 03:30:32;;;;;;;3.88;3.08;;;19.10;99.90;;;;;;5052861;28;20053;-76
2022/06/24 03:33:00;;;;;;;5.53;3.05;;;19.20;99.90;;;;;;5049892;28;20045;-76
2022/06/24 03:35:27;;;;;;;5.00;2.90;;;19.30;99.90;;;;;;5070669;28;20059;-76
2022/06/24 03:37:55;;;;;;;5.15;2.95;;;19.30;99.90;;;;;;5065409;28;20041;-77
2022/06/24 03:40:23;;;;;;;5.57;2.75;;;19.30;99.90;;;;;;5064461;28;21117;-79
2022/06/24 03:42:51;;;;;;;6.80;3.45;;;19.30;99.90;;;;;;5050446;28;20579;-79
2022/06/24 03:45:19;;;;;;;5.70;2.85;;;19.20;99.90;;;;;;5050094;28;20420;-79
2022/06/24 03:47:46;;;;;;;6.25;2.92;;;19.20;99.90;;;;;;5059607;28;20056;-80
2022/06/24 03:50:13;;;;;;;2.88;2.67;;;19.10;99.90;;;;;;5067751;28;20209;-79
2022/06/24 03:52:40;;;;;;;3.75;3.03;;;19.10;99.90;;;;;;5069111;28;20052;-79
2022/06/24 03:55:08;;;;;;;4.60;2.78;;;19.00;99.90;;;;;;5069159;28;20041;-77
2022/06/24 03:57:38;;;;;;;3.40;3.00;;;19.00;99.90;;;;;;5058329;28;20099;-78
2022/06/24 04:00:08;;;;;;;3.67;2.60;;;19.00;99.90;;;;;;5050488;28;20128;-78
2022/06/24 04:02:40;;;;;;;3.20;2.53;;;19.00;99.90;;;;;;5050504;28;20060;-78
2022/06/24 04:05:10;;;;;;;2.85;2.60;;;19.00;99.90;;;;;;5048314;28;20075;-78
2022/06/24 04:07:38;;;;;;;2.27;2.07;;;19.00;99.90;;;;;;5064555;28;20416;-78
2022/06/24 04:10:06;;;;;;;3.00;2.70;;;19.00;99.90;;;;;;5066445;28;20281;-77
2022/06/24 04:12:34;;;;;;;3.95;2.63;;;19.00;99.90;;;;;;5063676;28;20049;-77
2022/06/24 04:15:15;;;;;;;4.63;2.67;;;19.00;99.90;;;;;;5065973;28;20048;-77
2022/06/24 04:17:44;;;;;;;3.00;2.38;;;19.00;99.90;;;;;;5048966;28;20053;-77
2022/06/24 04:20:13;;;;;;;7.93;3.10;;;19.00;99.90;;;;;;5049682;28;20144;-78
2022/06/24 04:22:40;;;;;;;3.97;2.33;;;19.00;99.90;;;;;;5058347;28;20110;-79
2022/06/24 04:25:10;;;;;;;3.15;2.35;;;19.00;99.90;;;;;;5061443;28;20072;-79
2022/06/24 04:27:38;;;;;;;3.72;3.03;;;19.10;99.90;;;;;;5053434;28;20048;-78
2022/06/24 04:30:09;;;;;;;6.07;2.83;;;19.10;99.90;;;;;;5052072;28;20051;-78
2022/06/24 04:32:36;;;;;;;4.22;2.50;;;19.10;99.90;;;;;;5059589;28;20053;-78
2022/06/24 04:35:05;;;;;;;4.35;2.30;;;19.10;99.90;;;;;;5057703;28;20041;-78
2022/06/24 04:37:36;;;;;;;7.60;6.88;;;19.20;99.90;;;;;;5072214;28;20040;-78
2022/06/24 04:40:06;;;;;;;4.80;2.22;;;19.20;99.90;;;;;;5071347;28;20056;-79
2022/06/24 04:42:33;;;;;;;2.45;2.20;;;19.20;99.90;;;;;;5068968;28;20417;-79
2022/06/24 04:45:01;;;;;;;3.33;2.08;;;19.20;99.90;;;;;;5068251;28;20094;-78
2022/06/24 04:47:30;;;;;;;3.08;2.40;;;19.20;99.90;;;;;;5050832;28;20206;-78
2022/06/24 04:49:57;;;;;;;8.50;2.70;;;19.30;99.90;;;;;;5045069;28;20467;-78
2022/06/24 04:52:25;;;;;;;3.83;2.38;;;19.30;99.90;;;;;;5047032;28;20046;-78
2022/06/24 04:54:53;;;;;;;3.78;2.72;;;19.30;99.90;;;;;;5055251;28;20041;-78
2022/06/24 04:57:20;;;;;;;4.32;2.70;;;19.40;99.90;;;;;;5036098;28;20045;-79
2022/06/24 04:59:50;;;;;;;5.65;2.80;;;19.50;99.90;;;;;;5067857;28;20053;-78
2022/06/24 05:02:18;;;;;;;4.97;2.95;;;19.50;99.90;;;;;;5059589;28;20056;-78
2022/06/24 05:04:47;;;;;;;4.28;2.53;;;19.60;99.90;;;;;;5050052;28;20033;-78
2022/06/24 05:07:14;;;;;;;8.25;2.90;;;19.70;99.90;;;;;;5056362;28;20421;-77
2022/06/24 05:09:42;;;;;;;3.60;2.28;;;19.80;99.90;;;;;;5065376;28;20483;-77
2022/06/24 05:12:11;;;;;;;2.67;2.08;;;19.90;99.90;;;;;;5059294;28;20053;-77
2022/06/24 05:14:38;;;;;;;4.28;2.30;;;19.90;99.90;;;;;;5057082;28;20037;-78
2022/06/24 05:17:05;;;;;;;4.13;2.40;;;20.00;99.90;;;;;;5062076;28;20056;-78
2022/06/24 05:19:33;;;;;;;5.35;2.63;;;20.10;99.90;;;;;;5059704;28;20461;-79
2022/06/24 05:22:02;;;;;;;4.65;2.67;;;20.20;99.90;;;;;;5051569;28;20049;-79
2022/06/24 05:24:29;;;;;;;4.53;2.20;;;20.30;99.90;;;;;;5051134;28;20049;-79
2022/06/24 05:26:57;;;;;;;8.77;3.28;;;20.40;99.90;;;;;;5064835;28;20110;-81
2022/06/24 05:29:24;;;;;;;5.05;2.30;;;20.50;99.90;;;;;;5060558;28;20083;-78
2022/06/24 05:31:51;;;;;;;2.60;2.20;;;20.60;99.90;;;;;;5051440;28;20072;-79
2022/06/24 05:34:19;;;;;;;2.10;2.00;;;20.70;99.90;;;;;;5052982;28;20045;-80
2022/06/24 05:36:46;;;;;;;3.78;2.13;;;20.80;99.90;;;;;;5057733;28;20053;-81
2022/06/24 05:39:15;;;;;;;5.95;2.05;;;21.00;99.90;;;;;;5045093;28;20094;-79
2022/06/24 05:41:43;;;;;;;1.67;1.40;;;21.00;99.90;;;;;;5063624;28;20489;-77
2022/06/24 05:44:12;;;;;;;1.92;1.40;;;21.20;99.90;;;;;;5071967;28;20045;-78
2022/06/24 05:46:40;;;;;;;3.33;2.00;;;21.50;99.90;;;;;;5073708;28;20045;-80
2022/06/24 05:49:08;;;;;;;2.13;1.67;;;21.80;99.90;;;;;;5063214;28;20143;-81
2022/06/24 05:51:36;;;;;;;1.95;1.83;;;22.10;99.90;;;;;;5062767;28;20139;-80
2022/06/24 05:56:50;;;;;;;2.20;1.50;;;22.80;99.90;;;;;;5067918;28;20052;-78
2022/06/24 05:59:17;;;;;;;3.38;1.50;;;23.00;99.90;;;;;;5049210;28;20136;-77
2022/06/24 06:01:45;;;;;;;4.07;1.60;;;22.90;99.90;;;;;;5051723;28;20049;-79
2022/06/24 06:04:12;;;;;;;1.40;1.30;;;23.00;99.90;;;;;;5053027;28;20040;-77
2022/06/24 06:06:40;;;;;;;4.05;2.20;;;23.50;99.90;;;;;;5061712;28;20136;-78
2022/06/24 06:09:10;;;;;;;32.65;2.65;;;24.10;99.90;;;;;;5049113;28;20067;-80
2022/06/24 06:11:38;;;;;;;5.03;1.50;;;24.60;99.90;;;;;;5057197;28;20060;-80
2022/06/24 06:14:07;;;;;;;3.10;1.25;;;25.10;99.10;;;;;;5062528;28;20169;-80
2022/06/24 06:16:35;;;;;;;3.22;1.58;;;25.60;95.50;;;;;;5055086;28;20139;-77
2022/06/24 06:19:02;;;;;;;3.33;1.63;;;26.00;94.20;;;;;;5057496;28;20044;-75
2022/06/24 06:21:30;;;;;;;2.00;1.17;;;26.30;91.00;;;;;;5055906;28;20158;-83
2022/06/24 06:23:57;;;;;;;4.10;1.55;;;26.70;91.00;;;;;;5055716;28;20055;-80
2022/06/24 06:26:25;;;;;;;3.13;1.45;;;27.00;87.50;;;;;;5047940;28;20099;-84
2022/06/24 06:28:53;;;;;;;1.73;1.60;;;27.30;85.30;;;;;;5048804;28;20170;-82
2022/06/24 06:31:22;;;;;;;3.65;1.65;;;27.60;82.20;;;;;;5051616;28;20051;-77
2022/06/24 06:33:50;;;;;;;3.35;1.98;;;27.80;80.40;;;;;;5050171;28;20040;-79
2022/06/24 06:36:17;;;;;;;5.78;1.80;;;28.00;79.20;;;;;;5064747;28;20044;-76
2022/06/24 06:38:44;;;;;;;4.05;1.98;;;28.10;78.70;;;;;;5063760;28;20148;-77
2022/06/24 06:41:11;;;;;;;1.73;1.40;;;28.30;75.00;;;;;;5051209;28;20060;-79
2022/06/24 06:43:39;;;;;;;3.13;1.60;;;28.40;74.30;;;;;;5066332;28;20044;-78
2022/06/24 06:46:10;;;;;;;3.28;1.40;;;28.60;73.90;;;;;;5048322;28;20045;-79
2022/06/24 06:48:39;;;;;;;1.38;1.27;;;28.80;73.10;;;;;;5068433;28;20056;-78
2022/06/24 06:51:06;;;;;;;4.28;1.40;;;29.00;70.40;;;;;;5069329;28;20089;-79
2022/06/24 06:53:34;;;;;;;4.40;1.42;;;29.30;69.30;;;;;;5065281;28;20051;-77
2022/06/24 06:56:01;;;;;;;5.57;1.40;;;29.40;67.80;;;;;;5058734;28;20440;-77
2022/06/24 06:58:29;;;;;;;3.13;1.27;;;29.60;68.00;;;;;;5059452;28;20056;-83
2022/06/24 07:00:57;;;;;;;4.13;1.80;;;29.70;66.20;;;;;;5054556;28;20037;-81
2022/06/24 07:03:24;;;;;;;4.35;2.75;;;29.70;66.10;;;;;;5053860;28;20057;-83
2022/06/24 07:05:54;;;;;;;3.42;1.77;;;29.80;65.90;;;;;;5054454;28;20110;-83
2022/06/24 07:08:23;;;;;;;3.55;1.60;;;29.90;65.60;;;;;;5053860;28;20044;-80
2022/06/24 07:10:50;;;;;;;2.25;1.38;;;30.10;63.90;;;;;;5053941;28;20187;-79
2022/06/24 07:13:19;;;;;;;4.82;1.40;;;30.30;64.10;;;;;;5050269;28;20053;-79
2022/06/24 07:15:46;;;;;;;3.63;1.80;;;30.50;62.20;;;;;;5052896;28;20049;-80
2022/06/24 07:18:14;;;;;;;3.75;1.60;;;30.90;62.30;;;;;;5058968;28;20432;-77
2022/06/24 07:20:44;;;;;;;3.83;1.55;;;31.00;60.30;;;;;;5057337;28;20059;-77
2022/06/24 07:23:13;;;;;;;3.35;1.58;;;31.30;59.70;;;;;;5058733;28;20045;-76
2022/06/24 07:25:40;;;;;;;7.82;1.70;;;31.40;59.90;;;;;;5070474;28;20048;-76
2022/06/24 07:28:08;;;;;;;4.40;1.63;;;31.30;59.10;;;;;;5053692;28;20044;-76
2022/06/24 07:30:35;;;;;;;1.92;1.73;;;31.40;58.90;;;;;;5052414;28;20398;-77
2022/06/24 07:33:03;;;;;;;2.95;1.73;;;31.50;59.80;;;;;;5055730;28;20052;-77
2022/06/24 07:35:30;;;;;;;3.67;2.40;;;31.70;58.10;;;;;;5053901;28;20052;-76
2022/06/24 07:37:58;;;;;;;4.97;2.22;;;31.70;58.30;;;;;;5057294;28;20048;-76
2022/06/24 07:40:27;;;;;;;4.30;2.22;;;31.70;58.10;;;;;;5054742;28;20108;-76
2022/06/24 07:42:54;;;;;;;2.38;2.15;;;31.80;57.90;;;;;;5052657;28;20491;-79
2022/06/24 07:45:21;;;;;;;4.72;2.30;;;32.00;58.10;;;;;;5050227;28;20063;-77
2022/06/24 07:47:49;;;;;;;4.68;2.58;;;32.00;56.90;;;;;;5050249;28;20045;-78
2022/06/24 07:50:17;;;;;;;5.72;2.45;;;32.00;57.30;;;;;;5046331;28;20478;-79
2022/06/24 07:52:44;;;;;;;3.28;2.75;;;32.00;57.70;;;;;;5053230;28;20049;-77
2022/06/24 07:57:58;;;;;;;4.97;2.40;;;32.10;57.50;;;;;;5065588;28;20067;-77
2022/06/24 08:00:25;;;;;;;6.57;2.35;;;32.40;57.00;;;;;;5039186;28;22055;-78
2022/06/24 08:02:52;;;;;;;8.88;2.92;;;32.70;56.90;;;;;;5062369;28;20041;-76
2022/06/24 08:05:20;;;;;;;5.20;2.63;;;32.90;56.00;;;;;;5064778;28;20370;-76
2022/06/24 08:07:48;;;;;;;5.75;3.08;;;33.10;55.80;;;;;;5054902;28;20191;-77
2022/06/24 08:10:16;;;;;;;2.40;2.20;;;33.20;55.50;;;;;;5052818;28;20041;-78
2022/06/24 08:12:43;;;;;;;4.75;2.50;;;33.30;55.80;;;;;;5050823;28;20519;-76
2022/06/24 08:15:14;;;;;;;2.85;2.47;;;33.50;55.70;;;;;;5049039;28;20041;-76
2022/06/24 08:17:41;;;;;;;5.93;2.50;;;33.60;56.20;;;;;;5050471;28;20095;-75
2022/06/24 08:20:10;;;;;;;7.20;2.40;;;33.90;56.40;;;;;;5064826;28;20430;-73
2022/06/24 08:22:40;;;;;;;;;;;34.30;55.90;;;;;;5061208;28;20547;-75
2022/06/24 08:25:09;;;;;;;3.05;2.45;;;34.60;55.60;;;;;;5053627;28;19925;-77
2022/06/24 08:27:36;;;;;;;4.55;2.25;;;34.60;53.40;;;;;;5061660;28;20503;-76
2022/06/24 08:30:04;;;;;;;3.78;2.47;;;34.70;53.40;;;;;;5057969;28;20052;-76
2022/06/24 08:32:32;;;;;;;6.35;2.40;;;34.80;53.00;;;;;;5054996;28;20163;-76
2022/06/24 08:35:00;;;;;;;3.33;2.67;;;35.10;54.60;;;;;;5059445;28;20037;-77
2022/06/24 08:37:27;;;;;;;4.18;2.40;;;35.20;52.40;;;;;;5060578;28;20052;-76
2022/06/24 08:39:54;;;;;;;5.25;2.75;;;35.40;53.10;;;;;;5061065;28;20408;-74
2022/06/24 08:42:29;;;;;;;3.85;2.30;;;35.30;52.40;;;;;;5062963;28;20044;-73
2022/06/24 08:45:01;;;;;;;6.55;2.63;;;35.30;52.70;;;;;;5062432;28;20048;-77
2022/06/24 08:47:28;;;;;;;3.72;2.45;;;35.40;53.30;;;;;;5061028;28;20052;-75
2022/06/24 08:49:58;;;;;;;2.80;2.60;;;35.50;51.70;;;;;;5063153;28;20127;-74
2022/06/24 08:52:25;;;;;;;4.07;2.60;;;35.60;52.50;;;;;;5061431;28;20088;-75
2022/06/24 08:54:53;;;;;;;5.68;2.30;;;35.60;52.40;;;;;;5054506;28;20037;-74
2022/06/24 08:57:21;;;;;;;4.25;2.30;;;35.80;51.60;;;;;;5055128;28;20049;-75
2022/06/24 08:59:48;;;;;;;3.15;2.10;;;36.00;51.70;;;;;;5055639;28;20424;-75
2022/06/24 09:02:17;;;;;;;3.05;2.30;;;36.00;51.40;;;;;;5048880;28;20084;-76
2022/06/24 09:04:47;;;;;;;3.63;2.67;;;36.10;51.70;;;;;;5025256;28;20567;-76
2022/06/24 09:07:25;;;;;;;2.75;2.05;;;36.30;50.90;;;;;;5027522;28;20048;-76
2022/06/24 09:09:58;;;;;;;3.47;2.03;;;36.50;49.40;;;;;;5023269;28;20140;-75
2022/06/24 09:12:30;;;;;;;3.35;2.00;;;36.70;49.30;;;;;;5022271;28;20077;-76
2022/06/24 09:15:03;;;;;;;3.70;2.42;;;36.70;50.10;;;;;;4994304;28;20057;-76
2022/06/24 09:17:32;;;;;;;2.88;2.10;;;36.80;49.70;;;;;;5025563;28;20397;-74
2022/06/24 09:20:11;;;;;;;2.67;2.47;;;36.90;50.40;;;;;;5025688;28;20053;-77
2022/06/24 09:22:40;;;;;;;3.45;2.05;;;37.10;48.90;;;;;;5013063;28;20497;-78
2022/06/24 09:25:08;;;;;;;5.47;2.35;;;37.20;49.70;;;;;;5027860;28;20069;-75
2022/06/24 09:27:42;;;;;;;3.40;2.65;;;37.20;49.20;;;;;;5021164;28;20108;-76
2022/06/24 09:30:10;;;;;;;3.63;2.00;;;37.20;48.30;;;;;;5017471;28;20041;-75
2022/06/24 09:32:50;;;;;;;4.10;2.05;;;37.40;47.90;;;;;;5027396;28;20046;-74
2022/06/24 09:35:17;;;;;;;3.90;1.80;;;37.50;47.90;;;;;;5025259;28;20038;-73
2022/06/24 09:37:48;;;;;;;1.92;1.80;;;37.60;47.30;;;;;;5019683;28;20052;-75
2022/06/24 09:40:24;;;;;;;5.05;2.10;;;37.80;47.60;;;;;;5024902;28;20148;-74
2022/06/24 09:42:56;;;;;;;6.95;2.10;;;37.80;47.40;;;;;;5025780;28;20547;-76
2022/06/24 09:45:25;;;;;;;6.70;2.30;;;37.80;47.80;;;;;;5024536;28;20053;-76
2022/06/24 09:47:53;;;;;;;2.50;2.08;;;38.00;47.30;;;;;;5030235;28;20049;-77
2022/06/24 09:50:21;;;;;;;3.42;1.95;;;37.90;47.00;;;;;;5013497;28;20054;-76
2022/06/24 09:52:51;;;;;;;4.78;4.20;;;38.00;48.50;;;;;;5012600;28;20127;-76
2022/06/24 09:55:19;;;;;;;2.10;1.95;;;38.20;47.80;;;;;;5025372;28;20049;-76
2022/06/24 09:57:47;;;;;;;1.70;1.60;;;38.10;47.30;;;;;;4997376;28;20049;-77
2022/06/24 10:03:04;;;;;;;4.05;1.88;;;38.10;46.70;;;;;;5028654;28;20046;-76
2022/06/24 10:05:35;;;;;;;5.07;2.00;;;38.20;46.40;;;;;;5013002;28;20061;-76
2022/06/24 10:08:06;;;;;;;4.78;2.20;;;38.20;46.40;;;;;;5025230;28;20567;-75
2022/06/24 10:10:36;;;;;;;4.20;1.90;;;38.30;46.40;;;;;;5025607;28;20111;-75
2022/06/24 10:13:08;;;;;;;2.08;1.85;;;38.20;46.30;;;;;;5020350;28;20513;-75
2022/06/24 10:15:36;;;;;;;2.00;1.80;;;38.20;46.40;;;;;;5020298;28;20053;-75
2022/06/24 10:18:08;;;;;;;3.58;2.10;;;38.10;46.60;;;;;;5022215;28;20049;-75
2022/06/24 10:20:38;;;;;;;4.28;2.00;;;38.10;46.90;;;;;;5012839;28;20472;-75
2022/06/24 10:23:07;;;;;;;3.38;1.90;;;38.10;47.50;;;;;;5028435;28;20084;-75
2022/06/24 10:25:54;;;;;;;4.15;1.98;;;38.20;45.90;;;;;;5023304;28;20555;-76
2022/06/24 10:28:23;;;;;;;3.72;2.22;;;38.20;45.20;;;;;;5020104;28;20037;-75
2022/06/24 10:30:58;;;;;;;3.13;2.00;;;38.10;45.40;;;;;;5025182;28;20076;-75
2022/06/24 10:33:31;;;;;;;3.40;1.88;;;38.30;45.80;;;;;;5027383;28;20100;-75
2022/06/24 10:36:03;;;;;;;5.07;2.28;;;38.50;45.40;;;;;;5026106;28;20045;-76
2022/06/24 10:38:40;;;;;;;2.47;1.70;;;38.80;46.90;;;;;;5025202;28;20060;-77
2022/06/24 10:41:10;;;;;;;2.60;2.00;;;38.90;45.40;;;;;;5011251;28;20061;-76
2022/06/24 10:43:40;;;;;;;3.72;2.00;;;39.00;46.50;;;;;;4995045;28;20176;-76
2022/06/24 10:46:21;;;;;;;5.23;2.20;;;39.10;46.50;;;;;;5020555;28;20054;-76
2022/06/24 10:49:01;;;;;;;2.50;1.85;;;39.40;46.20;;;;;;5011443;28;20074;-78
2022/06/24 10:51:32;;;;;;;4.38;2.33;;;39.80;45.10;;;;;;5027576;28;20671;-78
2022/06/24 10:54:13;;;;;;;2.15;1.95;;;39.80;45.30;;;;;;5019265;28;20050;-78
2022/06/24 10:56:42;;;;;;;2.10;1.90;;;39.90;44.40;;;;;;5022540;28;20061;-76
2022/06/24 10:59:10;;;;;;;2.20;2.00;;;39.80;43.90;;;;;;5004465;28;20092;-78
2022/06/24 11:01:41;;;;;;;2.58;1.70;;;39.60;43.90;;;;;;5019292;28;20045;-77
2022/06/24 11:04:13;;;;;;;2.58;2.22;;;39.70;44.90;;;;;;5026755;28;20052;-77
2022/06/24 11:06:40;;;;;;;;;;;39.90;44.00;;;;;;5016786;28;20049;-77
2022/06/24 11:09:10;;;;;;;2.13;1.80;;;39.80;43.20;;;;;;5018323;28;19925;-77
2022/06/24 11:11:37;;;;;;;7.03;1.90;;;40.00;44.50;;;;;;5010104;28;20497;-77
2022/06/24 11:14:23;;;;;;;3.60;2.28;;;40.20;44.40;;;;;;5013306;28;20148;-79
2022/06/24 11:16:51;;;;;;;9.15;2.28;;;40.40;43.00;;;;;;5022008;28;20144;-78
2022/06/24 11:19:18;;;;;;;2.95;2.10;;;40.60;44.00;;;;;;5020350;28;20061;-78
2022/06/24 11:21:47;;;;;;;2.00;1.90;;;40.70;43.10;;;;;;5004575;28;20055;-78
2022/06/24 11:24:19;;;;;;;3.03;2.10;;;40.80;43.40;;;;;;5022726;28;20041;-79
2022/06/24 11:27:09;;;;;;;6.05;1.98;;;41.00;43.30;;;;;;5004609;28;20513;-78
2022/06/24 11:30:00;;;;;;;2.60;2.22;;;41.00;42.10;;;;;;5017589;28;20058;-77
2022/06/24 11:32:27;;;;;;;3.78;2.03;;;41.10;42.30;;;;;;5016660;28;20109;-75
2022/06/24 11:34:55;;;;;;;3.25;1.80;;;41.00;42.90;;;;;;5010309;28;20422;-76
2022/06/24 11:37:23;;;;;;;4.05;2.30;;;41.20;43.20;;;;;;5010025;28;21918;-79
2022/06/24 11:39:55;;;;;;;6.18;2.47;;;41.20;42.00;;;;;;5010296;28;20145;-76
2022/06/24 11:42:23;;;;;;;2.60;2.13;;;41.50;41.80;;;;;;5021794;28;20148;-77
2022/06/24 11:44:52;;;;;;;3.25;2.20;;;41.60;42.40;;;;;;5026153;28;20560;-77
2022/06/24 11:47:33;;;;;;;2.60;2.33;;;41.60;41.20;;;;;;5025527;28;20525;-78
2022/06/24 11:50:00;;;;;;;2.05;1.70;;;41.30;40.80;;;;;;5021336;28;20042;-77
2022/06/24 11:52:28;;;;;;;4.22;2.63;;;40.80;41.50;;;;;;5015830;28;20064;-79
2022/06/24 11:54:57;;;;;;;2.15;1.90;;;41.00;41.70;;;;;;4991833;28;20533;-77
2022/06/24 11:57:25;;;;;;;5.00;2.20;;;41.20;42.20;;;;;;5016871;28;20103;-77
2022/06/24 11:59:59;;;;;;;4.28;2.92;;;41.40;41.50;;;;;;5028195;28;20224;-77
2022/06/24 12:02:26;;;;;;;3.45;2.30;;;41.70;42.40;;;;;;5018787;28;20112;-76
2022/06/24 12:04:54;;;;;;;3.45;2.17;;;41.80;40.80;;;;;;5013832;28;20403;-79
2022/06/24 12:07:21;;;;;;;5.43;1.95;;;41.80;40.60;;;;;;5020361;28;20037;-79
2022/06/24 12:09:49;;;;;;;2.58;2.10;;;41.90;41.40;;;;;;5017102;28;20111;-79
2022/06/24 12:12:17;;;;;;;5.72;2.30;;;42.10;40.90;;;;;;5019392;28;20510;-81
2022/06/24 12:14:55;;;;;;;5.93;2.78;;;42.30;41.20;;;;;;5016952;28;20072;-80
2022/06/24 12:17:23;;;;;;;3.35;2.15;;;42.30;40.80;;;;;;5025589;28;20045;-80
2022/06/24 12:20:01;;;;;;;3.67;2.40;;;42.20;40.00;;;;;;5017209;28;20045;-80
2022/06/24 12:22:30;;;;;;;2.90;2.55;;;42.30;39.90;;;;;;5028062;28;20060;-77
2022/06/24 12:25:02;;;;;;;3.95;2.25;;;42.50;40.70;;;;;;5012622;28;20050;-79
2022/06/24 12:27:36;;;;;;;5.40;2.85;;;42.40;39.60;;;;;;5019091;28;20096;-75
2022/06/24 12:30:05;;;;;;;5.40;2.90;;;42.30;39.30;;;;;;5023675;28;20127;-75
2022/06/24 12:32:51;;;;;;;5.07;2.53;;;41.90;39.80;;;;;;5027101;28;20049;-76
2022/06/24 12:35:32;;;;;;;4.38;2.40;;;41.30;40.60;;;;;;5028822;28;20111;-75
2022/06/24 12:37:59;;;;;;;5.40;3.23;;;41.20;40.90;;;;;;5008822;28;20056;-77
2022/06/24 12:40:26;;;;;;;5.88;2.38;;;40.60;41.00;;;;;;5027629;28;20108;-76
2022/06/24 12:43:07;;;;;;;3.60;2.40;;;40.50;42.60;;;;;;5020070;28;20136;-80
2022/06/24 12:45:40;;;;;;;2.90;2.50;;;40.90;41.50;;;;;;5027475;28;20042;-79
2022/06/24 12:50:58;;;;;;;5.63;2.50;;;41.50;41.90;;;;;;5027928;28;20083;-76
2022/06/24 12:53:25;;;;;;;4.50;2.65;;;41.70;40.30;;;;;;5020976;28;20053;-77
2022/06/24 12:55:53;;;;;;;7.65;2.58;;;42.00;41.30;;;;;;5017907;28;20474;-76
2022/06/24 12:58:21;;;;;;;4.00;2.70;;;42.10;41.10;;;;;;5020153;28;20494;-76
2022/06/24 13:00:49;;;;;;;7.45;2.58;;;42.20;41.20;;;;;;5026378;28;20387;-77
2022/06/24 13:03:18;;;;;;;6.70;2.60;;;42.30;41.00;;;;;;5031397;28;20041;-77
2022/06/24 13:05:45;;;;;;;5.65;2.33;;;42.30;40.50;;;;;;5019612;28;20607;-76
2022/06/24 13:08:12;;;;;;;11.88;3.00;;;42.20;39.80;;;;;;5011833;28;20046;-78
2022/06/24 13:10:40;;;;;;;4.75;3.05;;;41.90;40.80;;;;;;5027651;28;20671;-79
2022/06/24 13:13:08;;;;;;;6.63;3.33;;;41.90;41.30;;;;;;5026833;28;20038;-81